METAR Data
IDs: Format: Raw Decoded Include TAF

Data at: 0844 UTC 20 Sep 2018

PASI 200753Z 10003KT 10SM CLR 09/04 A3005 RMK AO2 SLP176 T00890044
PASI 200653Z 00000KT 10SM CLR 09/03 A3005 RMK AO2 SLP176 T00890033
PASI 200553Z 10003KT 10SM CLR 09/04 A3005 RMK AO2 SLP176 T00940044 10172 20089 51005
PASI 200453Z 00000KT 10SM CLR 11/05 A3005 RMK AO2 SLP175 T01060050
PASI 200353Z 07006KT 10SM CLR 12/06 A3004 RMK AO2 SLP174 T01170056
PASI 200253Z 31009KT 10SM CLR 14/08 A3003 RMK AO2 SLP171 T01440083 55004
PASI 200153Z 30011KT 10SM CLR 16/07 A3003 RMK AO2 SLP169 T01560067
PASI 200053Z 30010KT 10SM FEW050 16/07 A3004 RMK AO2 SLP172 T01610067
PASI 192353Z 24003KT 10SM FEW040 16/08 A3005 RMK AO2 RAB32E42 SLP175 P0000 60000 T01560083 10161 20111 58010
PASI 192253Z 00000KT 10SM CLR 15/08 A3006 RMK AO2 SLP179 T01500083 $
PASI 192153Z 22005KT 10SM CLR 14/08 A3007 RMK SLP183 T01440078 $ VIA AUTODIAL
PASI 192053Z 23006KT 10SM CLR 14/06 A3008 RMK AO2 SLP186 T01390061 58006 $
PASI 191953Z 00000KT 10SM CLR 14/06 A3008 RMK AO2 SLP187 T01390056 $
PASI 191853Z 00000KT 10SM CLR 12/06 A3009 RMK AO2 SLP191 T01220061
PASI 191753Z 00000KT 10SM CLR 11/05 A3010 RMK AO2 SLP192 60000 T01110050 10111 20056 58000
PASI 191653Z 00000KT 8SM CLR 10/05 A3010 RMK AO2 SLP192 T01000050
PASI 191553Z 00000KT 10SM CLR 08/04 A3010 RMK AO2 SLP192 T00780039
PASI 191453Z 00000KT 10SM CLR 06/03 A3010 RMK AO2 SLP192 P0000 60000 T00610028 53000
PASI 191353Z 00000KT 10SM CLR 07/04 A3010 RMK AO2 SLP192 T00670039
PASI 191253Z 00000KT 10SM CLR 07/03 A3010 RMK AO2 SLP191 T00670028
PASI 191153Z 00000KT 10SM CLR 07/04 A3010 RMK AO2 SLP192 60000 T00720039 10117 20072 58002
PASI 191053Z 00000KT 10SM CLR 07/04 A3010 RMK AO2 SLP193 T00720044
PASI 190953Z 08003KT 10SM CLR 07/04 A3010 RMK AO2 SLP194 T00720039
PASI 190853Z 00000KT 10SM CLR 08/04 A3010 RMK AO2 SLP194 60000 T00830044 401780067 50003
PASI 190753Z COR 00000KT 10SM CLR 10/04 A3010 RMK AO2 SLP194 T01000044
PASI 190653Z 00000KT 10SM CLR 09/04 A3010 RMK AO2 SLP193 T00940039
PASI 190553Z 00000KT 10SM CLR 11/03 A3010 RMK AO2 SLP191 T01060033 10178 20094 51005
PASI 190453Z 15003KT 10SM CLR 12/04 A3009 RMK AO2 SLP190 T01170044
PASI 190353Z 00000KT 10SM CLR 13/04 A3009 RMK AO2 SLP190 T01280039
PASI 190253Z 34009KT 10SM FEW080 16/04 A3008 RMK AO2 SLP186 T01560044 55002
PASI 190153Z 32007KT 10SM SCT080 16/08 A3008 RMK AO2 SLP185 T01560083
PASI 190053Z 30010KT 10SM FEW040 17/07 A3008 RMK AO2 SLP186 T01670067
PASI 182353Z 29008KT 10SM FEW040 18/07 A3009 RMK AO2 SLP188 T01780067 10178 20122 56007
PASI 182253Z 29007KT 10SM FEW040 17/08 A3009 RMK AO2 SLP190 T01670083
PASI 182153Z 29006KT 10SM FEW040 16/08 A3010 RMK AO2 SLP193 T01610078
PASI 182053Z 30004KT 10SM FEW200 15/07 A3011 RMK AO2 SLP196 T01500067 58005